Time;durP1;ratioP1;P1;durP2;ratioP2;P2;SDS_P1;SDS_P2;PMS_P1;PMS_P2;Temp;Humidity;BMP_temperature;BMP_pressure;BME280_temperature;BME280_humidity;BME280_pressure;Samples;Min_cycle;Max_cycle;Signal;HPM_P1;HPM_P2
2023/05/22 00:02:16;;;;;;;6.27;5.67;;;23.20;66.70;;;;;;5066816;28;20233;-44
2023/05/22 00:04:45;;;;;;;6.13;5.53;;;23.20;66.80;;;;;;5069823;28;20271;-45
2023/05/22 00:07:23;;;;;;;6.23;5.63;;;23.20;66.60;;;;;;5051448;28;20244;-44
2023/05/22 00:09:55;;;;;;;5.77;5.27;;;23.20;66.90;;;;;;5063975;28;20224;-45
2023/05/22 00:12:23;;;;;;;6.47;5.80;;;23.20;66.80;;;;;;5065444;28;20218;-44
2023/05/22 00:15:04;;;;;;;6.30;5.70;;;23.20;66.70;;;;;;5069605;28;20749;-43
2023/05/22 00:17:33;;;;;;;5.73;5.23;;;23.20;66.90;;;;;;5053571;28;20639;-44
2023/05/22 00:20:09;;;;;;;6.13;5.53;;;23.20;66.80;;;;;;5063843;28;20198;-44
2023/05/22 00:22:50;;;;;;;6.20;5.60;;;23.20;67.50;;;;;;5071105;28;20559;-44
2023/05/22 00:25:21;;;;;;;6.17;5.57;;;23.10;66.90;;;;;;5065512;28;20218;-44
2023/05/22 00:27:55;;;;;;;6.43;5.83;;;23.10;66.90;;;;;;5072081;28;20198;-44
2023/05/22 00:30:24;;;;;;;8.03;6.23;;;23.10;66.90;;;;;;5067534;28;20225;-44
2023/05/22 00:32:56;;;;;;;5.90;5.40;;;23.10;67.00;;;;;;5067973;28;20229;-43
2023/05/22 00:35:29;;;;;;;6.47;5.87;;;23.10;67.00;;;;;;5068775;28;20213;-44
2023/05/22 00:37:57;;;;;;;6.43;5.50;;;23.10;66.90;;;;;;5058414;28;20193;-44
2023/05/22 00:40:27;;;;;;;6.30;5.70;;;23.10;67.10;;;;;;5069916;28;20622;-44
2023/05/22 00:42:57;;;;;;;5.97;5.37;;;23.10;67.00;;;;;;5067822;28;20214;-44
2023/05/22 00:45:28;;;;;;;6.57;5.40;;;23.10;67.00;;;;;;5050462;28;20213;-44
2023/05/22 00:47:59;;;;;;;6.50;5.40;;;23.10;66.90;;;;;;5068566;28;20271;-44
2023/05/22 00:50:31;;;;;;;6.00;5.50;;;23.10;66.80;;;;;;5068079;28;20227;-45
2023/05/22 00:53:02;;;;;;;5.40;5.00;;;23.10;67.70;;;;;;5068850;28;20283;-44
2023/05/22 00:55:34;;;;;;;5.77;5.23;;;23.10;67.00;;;;;;5059701;28;20698;-44
2023/05/22 00:58:07;;;;;;;5.57;5.07;;;23.00;66.70;;;;;;5042035;28;20661;-44
2023/05/22 01:01:01;;;;;;;6.00;5.27;;;23.10;66.80;;;;;;5060637;28;20513;-44
2023/05/22 01:03:43;;;;;;;6.10;5.50;;;23.10;67.00;;;;;;5068359;28;20193;-44
2023/05/22 01:06:20;;;;;;;5.50;5.10;;;23.00;66.80;;;;;;5063151;28;20216;-44
2023/05/22 01:08:50;;;;;;;6.70;6.00;;;23.00;67.00;;;;;;5053456;28;20193;-43
2023/05/22 01:12:04;;;;;;;5.63;5.13;;;23.10;67.00;;;;;;5068116;28;20206;-44
2023/05/22 01:14:52;;;;;;;6.03;5.43;;;23.00;66.80;;;;;;5021579;28;20233;-43
2023/05/22 01:17:52;;;;;;;6.90;6.20;;;23.00;67.00;;;;;;5069271;28;20292;-43
2023/05/22 01:20:56;;;;;;;6.03;5.43;;;23.00;67.00;;;;;;5063813;28;20247;-44
2023/05/22 01:24:05;;;;;;;5.60;5.10;;;23.00;67.00;;;;;;5055135;28;20216;-44
2023/05/22 01:26:55;;;;;;;6.43;5.77;;;23.00;66.90;;;;;;5060160;28;20198;-43
2023/05/22 01:29:51;;;;;;;7.40;6.67;;;23.00;67.00;;;;;;5067641;28;20204;-44
2023/05/22 01:32:30;;;;;;;6.37;5.73;;;23.00;67.00;;;;;;5045547;28;20248;-44
2023/05/22 01:35:07;;;;;;;5.83;5.20;;;23.00;66.90;;;;;;5029148;28;20636;-44
2023/05/22 01:37:41;;;;;;;6.63;5.90;;;23.00;67.00;;;;;;5032146;28;20263;-45
2023/05/22 01:40:11;;;;;;;6.10;5.50;;;23.00;66.90;;;;;;5042355;28;20216;-44
2023/05/22 01:42:44;;;;;;;6.17;5.63;;;23.00;66.90;;;;;;5044579;28;20193;-44
2023/05/22 01:45:16;;;;;;;6.37;5.77;;;23.00;66.90;;;;;;5030377;28;20214;-44
2023/05/22 01:47:45;;;;;;;5.93;5.33;;;23.00;66.90;;;;;;5049852;28;20667;-44
2023/05/22 01:50:20;;;;;;;7.10;5.60;;;22.90;66.90;;;;;;5048080;28;20194;-44
2023/05/22 01:53:18;;;;;;;7.67;5.50;;;23.00;67.00;;;;;;5052139;28;20190;-44
2023/05/22 01:56:19;;;;;;;5.90;5.30;;;23.00;67.00;;;;;;5048692;28;20667;-44
2023/05/22 01:58:54;;;;;;;5.87;5.27;;;22.90;67.00;;;;;;5053355;28;20202;-44
2023/05/22 02:01:31;;;;;;;5.43;4.93;;;22.90;67.10;;;;;;5049458;28;20257;-44
2023/05/22 02:04:01;;;;;;;5.80;5.30;;;22.90;67.00;;;;;;5045358;28;20206;-44
2023/05/22 02:06:33;;;;;;;5.67;5.17;;;22.90;67.00;;;;;;5047759;28;20788;-44
2023/05/22 02:09:05;;;;;;;5.40;4.90;;;22.90;67.00;;;;;;5051607;28;20190;-43
2023/05/22 02:11:38;;;;;;;5.87;5.30;;;22.90;67.00;;;;;;5033163;28;20189;-44
2023/05/22 02:14:14;;;;;;;5.63;5.13;;;22.90;67.10;;;;;;5034741;28;20190;-44
2023/05/22 02:16:49;;;;;;;5.33;4.83;;;22.90;67.00;;;;;;5049358;28;20294;-43
2023/05/22 02:19:37;;;;;;;5.60;5.10;;;22.90;67.00;;;;;;5043457;28;20237;-43
2023/05/22 02:22:10;;;;;;;5.50;5.00;;;22.90;67.00;;;;;;5048177;28;20228;-44
2023/05/22 02:24:49;;;;;;;5.80;5.27;;;22.90;67.00;;;;;;5049642;28;20190;-44
2023/05/22 02:27:18;;;;;;;5.97;5.37;;;22.90;67.10;;;;;;5041074;28;20213;-44
2023/05/22 02:29:51;;;;;;;5.90;5.40;;;22.90;67.10;;;;;;5038696;28;20263;-45
2023/05/22 02:32:23;;;;;;;5.80;5.30;;;22.80;67.00;;;;;;5042294;28;20367;-44
2023/05/22 02:34:55;;;;;;;5.23;4.83;;;22.90;67.00;;;;;;5044039;28;20688;-44
2023/05/22 02:37:25;;;;;;;6.77;6.17;;;22.90;67.00;;;;;;5050525;28;20658;-44
2023/05/22 02:39:56;;;;;;;6.33;5.73;;;22.80;66.90;;;;;;5050095;28;20245;-44
2023/05/22 02:42:26;;;;;;;5.30;4.80;;;22.80;66.90;;;;;;5047299;28;20197;-44
2023/05/22 02:44:57;;;;;;;5.27;4.77;;;22.80;66.90;;;;;;5050270;28;20206;-44
2023/05/22 02:47:26;;;;;;;4.97;4.57;;;22.80;66.90;;;;;;5049941;28;20640;-44
2023/05/22 02:49:58;;;;;;;5.87;5.37;;;22.80;66.90;;;;;;5048183;28;20202;-44
2023/05/22 02:52:29;;;;;;;5.47;4.93;;;22.80;66.80;;;;;;5048384;28;20744;-44
2023/05/22 02:55:03;;;;;;;6.27;5.67;;;22.80;66.90;;;;;;5047194;28;20299;-43
2023/05/22 02:57:32;;;;;;;7.10;5.47;;;22.80;66.80;;;;;;5039436;28;20219;-44
2023/05/22 03:00:10;;;;;;;6.13;5.47;;;22.80;66.80;;;;;;5047503;28;20201;-45
2023/05/22 03:02:46;;;;;;;5.90;5.27;;;22.80;66.80;;;;;;5050627;28;20202;-44
2023/05/22 03:05:19;;;;;;;6.47;5.37;;;22.80;66.80;;;;;;5047685;28;20203;-44
2023/05/22 03:07:47;;;;;;;5.67;5.17;;;22.80;66.70;;;;;;5031358;28;20535;-44
2023/05/22 03:10:20;;;;;;;5.80;5.20;;;22.80;66.80;;;;;;5053379;28;20198;-44
2023/05/22 03:12:51;;;;;;;5.67;5.17;;;22.80;66.80;;;;;;5051802;28;20206;-44
2023/05/22 03:15:23;;;;;;;5.60;5.07;;;22.70;66.70;;;;;;5043761;28;20207;-44
2023/05/22 03:17:52;;;;;;;6.20;5.60;;;22.70;66.70;;;;;;5055804;28;20308;-44
2023/05/22 03:20:24;;;;;;;7.23;5.70;;;22.70;66.60;;;;;;5049179;28;20207;-44
2023/05/22 03:22:55;;;;;;;6.53;4.80;;;22.70;66.50;;;;;;5036521;28;20190;-44
2023/05/22 03:25:24;;;;;;;7.33;5.37;;;22.70;66.60;;;;;;5042381;28;20502;-44
2023/05/22 03:27:54;;;;;;;5.83;5.23;;;22.70;66.50;;;;;;5027579;28;20679;-44
2023/05/22 03:30:23;;;;;;;6.00;5.40;;;22.70;66.50;;;;;;5040318;28;20210;-44
2023/05/22 03:32:51;;;;;;;6.00;5.33;;;22.70;66.50;;;;;;5051033;28;20234;-44
2023/05/22 03:35:26;;;;;;;6.03;5.23;;;22.70;66.40;;;;;;5049411;28;20227;-44
2023/05/22 03:37:55;;;;;;;6.07;5.47;;;22.70;66.30;;;;;;5050978;28;20198;-44
2023/05/22 03:40:25;;;;;;;5.50;5.00;;;22.70;66.30;;;;;;5048114;28;20824;-44
2023/05/22 03:42:58;;;;;;;5.73;5.13;;;22.70;66.30;;;;;;5047804;28;20210;-44
2023/05/22 03:45:27;;;;;;;7.23;5.40;;;22.70;66.30;;;;;;5050348;28;20240;-44
2023/05/22 03:47:57;;;;;;;5.87;5.10;;;22.70;66.20;;;;;;5051154;28;20586;-44
2023/05/22 03:50:27;;;;;;;5.47;4.97;;;22.70;66.10;;;;;;5048261;28;20248;-44
2023/05/22 03:52:57;;;;;;;5.20;4.70;;;22.70;66.10;;;;;;5033273;28;20559;-44
2023/05/22 03:55:25;;;;;;;6.17;4.93;;;22.60;65.90;;;;;;5046497;28;20238;-44
2023/05/22 03:57:56;;;;;;;5.03;4.53;;;22.70;65.90;;;;;;5049756;28;20630;-44
2023/05/22 04:00:26;;;;;;;5.43;4.80;;;22.70;65.80;;;;;;5047547;28;20220;-44
2023/05/22 04:02:57;;;;;;;6.50;5.00;;;22.70;65.80;;;;;;5054009;28;20194;-45
2023/05/22 04:05:30;;;;;;;6.63;4.77;;;22.70;65.80;;;;;;5045454;28;20202;-43
2023/05/22 04:07:59;;;;;;;6.07;5.47;;;22.60;65.70;;;;;;5042819;28;20264;-44
2023/05/22 04:10:28;;;;;;;5.30;4.80;;;22.60;65.70;;;;;;5031864;28;20194;-43
2023/05/22 04:12:57;;;;;;;6.27;4.87;;;22.60;65.60;;;;;;5042238;28;20632;-44
2023/05/22 04:15:27;;;;;;;5.30;4.80;;;22.60;65.60;;;;;;5054231;28;20230;-44
2023/05/22 04:17:57;;;;;;;6.03;4.90;;;22.60;65.60;;;;;;5049771;28;20256;-44
2023/05/22 04:20:24;;;;;;;5.93;4.80;;;22.60;65.60;;;;;;5045438;28;20205;-44
2023/05/22 04:22:54;;;;;;;5.53;4.80;;;22.60;65.60;;;;;;5028169;28;20207;-44
2023/05/22 04:25:24;;;;;;;5.80;5.03;;;22.60;65.50;;;;;;5043472;28;20230;-43
2023/05/22 04:27:58;;;;;;;5.23;4.73;;;22.60;65.50;;;;;;5038554;28;20190;-44
2023/05/22 04:30:26;;;;;;;4.77;4.30;;;22.60;65.40;;;;;;5045294;28;20214;-44
2023/05/22 04:32:57;;;;;;;5.43;4.50;;;22.60;65.40;;;;;;5049753;28;20198;-44
2023/05/22 04:35:31;;;;;;;4.70;4.30;;;22.60;65.40;;;;;;5050173;28;20209;-44
2023/05/22 04:38:02;;;;;;;4.83;4.43;;;22.60;65.40;;;;;;5048945;28;20199;-44
2023/05/22 04:40:33;;;;;;;6.00;4.83;;;22.60;65.40;;;;;;5034327;28;20198;-44
2023/05/22 04:43:05;;;;;;;5.10;4.47;;;22.50;65.20;;;;;;5047695;28;20214;-43
2023/05/22 04:45:36;;;;;;;5.47;4.73;;;22.60;65.20;;;;;;5031129;28;20265;-44
2023/05/22 04:48:06;;;;;;;5.60;4.13;;;22.50;65.20;;;;;;5044760;28;20201;-44
2023/05/22 04:50:38;;;;;;;4.87;4.40;;;22.50;65.10;;;;;;5050463;28;20499;-44
2023/05/22 04:53:11;;;;;;;4.60;4.20;;;22.50;65.10;;;;;;5040556;28;20807;-44
2023/05/22 04:55:42;;;;;;;5.30;4.70;;;22.50;65.00;;;;;;5047021;28;20225;-44
2023/05/22 04:58:14;;;;;;;5.27;4.77;;;22.50;64.90;;;;;;5047712;28;20648;-44
2023/05/22 05:00:44;;;;;;;4.93;4.53;;;22.50;64.90;;;;;;5043936;28;20539;-44
2023/05/22 05:03:21;;;;;;;5.87;5.37;;;22.50;64.90;;;;;;5048583;28;20775;-44
2023/05/22 05:05:55;;;;;;;5.87;4.67;;;22.50;64.80;;;;;;5030994;28;20199;-44
2023/05/22 05:08:26;;;;;;;6.37;4.90;;;22.50;64.70;;;;;;5066410;28;20217;-44
2023/05/22 05:10:55;;;;;;;6.70;5.53;;;22.50;64.70;;;;;;5051949;28;20190;-44
2023/05/22 05:13:26;;;;;;;6.23;4.93;;;22.50;64.60;;;;;;5064127;28;20220;-44
2023/05/22 05:16:00;;;;;;;5.50;5.00;;;22.50;64.50;;;;;;5055050;28;20225;-44
2023/05/22 05:18:29;;;;;;;6.37;5.20;;;22.50;64.40;;;;;;5064264;28;20224;-43
2023/05/22 05:21:00;;;;;;;5.27;4.77;;;22.50;64.30;;;;;;5049864;28;20194;-44
2023/05/22 05:23:30;;;;;;;5.93;5.37;;;22.50;64.30;;;;;;5051751;28;20225;-45
2023/05/22 05:26:00;;;;;;;6.23;5.40;;;22.50;64.30;;;;;;5055286;28;20220;-44
2023/05/22 05:28:30;;;;;;;5.93;5.33;;;22.50;64.40;;;;;;5067590;28;20319;-44
2023/05/22 05:31:01;;;;;;;7.17;5.37;;;22.40;64.30;;;;;;5060840;28;20549;-44
2023/05/22 05:33:30;;;;;;;5.80;5.30;;;22.40;64.20;;;;;;5068567;28;20710;-44
2023/05/22 05:36:00;;;;;;;5.63;5.13;;;22.40;64.20;;;;;;5067936;28;20209;-45
2023/05/22 05:38:31;;;;;;;6.37;5.67;;;22.40;64.10;;;;;;5069389;28;20194;-45
2023/05/22 05:41:01;;;;;;;6.40;5.80;;;22.40;64.00;;;;;;5069034;28;20181;-44
2023/05/22 05:43:32;;;;;;;5.87;5.20;;;22.40;64.00;;;;;;5046960;28;20229;-44
2023/05/22 05:46:02;;;;;;;6.63;5.70;;;22.40;64.00;;;;;;5059391;28;20582;-45
2023/05/22 05:48:32;;;;;;;5.60;4.97;;;22.40;64.20;;;;;;5028973;28;20196;-45
2023/05/22 05:51:01;;;;;;;7.23;5.87;;;22.40;64.00;;;;;;5070780;28;20758;-44
2023/05/22 05:53:29;;;;;;;6.00;5.13;;;22.40;63.90;;;;;;5068782;28;20198;-44
2023/05/22 05:56:00;;;;;;;6.80;6.20;;;22.40;64.00;;;;;;5058928;28;20213;-44
2023/05/22 05:58:28;;;;;;;7.70;6.13;;;22.40;64.00;;;;;;5070470;28;20186;-44
2023/05/22 06:00:58;;;;;;;7.37;5.87;;;22.40;64.10;;;;;;5071145;28;20205;-44
2023/05/22 06:03:32;;;;;;;8.10;6.40;;;22.40;64.30;;;;;;5055543;28;20650;-43
2023/05/22 06:06:03;;;;;;;11.33;6.53;;;22.40;64.60;;;;;;5057683;28;20213;-44
2023/05/22 06:08:36;;;;;;;7.17;5.60;;;22.40;64.70;;;;;;5064137;28;20264;-43
2023/05/22 06:11:05;;;;;;;10.17;6.17;;;22.40;64.60;;;;;;5061940;28;20225;-44
2023/05/22 06:13:37;;;;;;;7.70;6.30;;;22.40;64.60;;;;;;5064442;28;20194;-44
2023/05/22 06:16:05;;;;;;;8.77;6.27;;;22.40;64.60;;;;;;5065220;28;20224;-44
2023/05/22 06:18:37;;;;;;;9.43;6.43;;;22.40;64.60;;;;;;5055786;28;20238;-44
2023/05/22 06:21:06;;;;;;;8.27;5.87;;;22.40;64.40;;;;;;5070307;28;20190;-43
2023/05/22 06:23:37;;;;;;;12.70;7.40;;;22.40;64.60;;;;;;5077677;28;20250;-43
2023/05/22 06:26:06;;;;;;;8.53;6.80;;;22.30;64.60;;;;;;5066641;28;20229;-43
2023/05/22 06:28:38;;;;;;;9.00;7.07;;;22.30;64.60;;;;;;5059400;28;20202;-43
2023/05/22 06:31:08;;;;;;;10.90;6.77;;;22.30;64.70;;;;;;5057705;28;20256;-43
2023/05/22 06:33:41;;;;;;;9.20;7.40;;;22.30;64.80;;;;;;5067343;28;20186;-43
2023/05/22 06:36:11;;;;;;;8.53;6.20;;;22.30;64.80;;;;;;5069107;28;20229;-44
2023/05/22 06:38:44;;;;;;;10.50;7.37;;;22.40;64.90;;;;;;5068747;28;20204;-44
2023/05/22 06:41:14;;;;;;;8.03;7.20;;;22.40;64.80;;;;;;5074172;28;20206;-44
2023/05/22 06:43:45;;;;;;;8.37;6.57;;;22.30;64.80;;;;;;5071398;28;20224;-44
2023/05/22 06:46:17;;;;;;;10.20;7.10;;;22.40;64.90;;;;;;5070533;28;20209;-44
2023/05/22 06:48:53;;;;;;;7.90;6.50;;;22.30;64.80;;;;;;5072363;28;20213;-45
2023/05/22 06:51:24;;;;;;;8.17;6.77;;;22.40;64.90;;;;;;5048542;28;20206;-44
2023/05/22 06:53:55;;;;;;;15.43;8.37;;;22.40;65.00;;;;;;5069409;28;20255;-43
2023/05/22 06:56:25;;;;;;;19.50;10.37;;;22.50;65.30;;;;;;5065720;28;20229;-44
2023/05/22 06:58:55;;;;;;;18.10;9.30;;;22.50;65.50;;;;;;5065825;28;20216;-45
2023/05/22 07:01:24;;;;;;;18.00;9.90;;;22.60;65.50;;;;;;5068049;28;20194;-44
2023/05/22 07:03:56;;;;;;;16.07;9.20;;;22.70;65.30;;;;;;5069573;28;20289;-44
2023/05/22 07:06:26;;;;;;;17.30;9.57;;;22.80;65.60;;;;;;5036675;28;21839;-44
2023/05/22 07:08:56;;;;;;;16.53;9.77;;;22.90;64.80;;;;;;5070106;28;20611;-44
2023/05/22 07:11:28;;;;;;;14.17;9.60;;;22.90;64.80;;;;;;5059871;28;20641;-44
2023/05/22 07:14:00;;;;;;;16.97;9.70;;;23.00;64.70;;;;;;5067174;28;20202;-44
2023/05/22 07:16:32;;;;;;;17.37;8.60;;;23.00;64.30;;;;;;5070424;28;20221;-44
2023/05/22 07:19:05;;;;;;;12.57;7.97;;;23.10;64.30;;;;;;5067562;28;20214;-44
2023/05/22 07:21:35;;;;;;;15.23;9.03;;;23.20;63.70;;;;;;5060756;28;20194;-44
2023/05/22 07:24:08;;;;;;;12.97;8.30;;;23.30;63.80;;;;;;5067828;28;20228;-44
2023/05/22 07:26:45;;;;;;;12.47;8.70;;;23.40;63.40;;;;;;5053341;28;20611;-44
2023/05/22 07:29:20;;;;;;;13.70;8.13;;;23.50;63.00;;;;;;5050036;28;20529;-44
2023/05/22 07:31:51;;;;;;;12.93;7.97;;;23.60;63.00;;;;;;5060126;28;20304;-44
2023/05/22 07:34:30;;;;;;;13.60;7.70;;;23.60;62.50;;;;;;5066962;28;20321;-44
2023/05/22 07:37:10;;;;;;;13.47;7.97;;;23.70;62.10;;;;;;5068863;28;20250;-43
2023/05/22 07:39:41;;;;;;;16.13;8.30;;;23.70;61.70;;;;;;5053454;28;20553;-44
2023/05/22 07:42:16;;;;;;;12.80;7.93;;;23.80;61.20;;;;;;5063108;28;20741;-45
2023/05/22 07:44:47;;;;;;;14.03;8.27;;;23.90;61.60;;;;;;5068909;28;20197;-45
2023/05/22 07:47:17;;;;;;;12.70;8.57;;;23.90;61.40;;;;;;5053621;28;20205;-44
2023/05/22 07:49:48;;;;;;;13.13;7.47;;;24.00;61.50;;;;;;5065513;28;20200;-44
2023/05/22 07:52:18;;;;;;;14.83;7.70;;;24.00;61.10;;;;;;5063670;28;20267;-44
2023/05/22 07:55:06;;;;;;;9.83;6.90;;;24.10;61.00;;;;;;5066746;28;20306;-44
2023/05/22 07:57:43;;;;;;;18.33;7.87;;;24.00;60.70;;;;;;5069819;28;20220;-44
2023/05/22 08:00:15;;;;;;;11.37;7.63;;;24.10;61.00;;;;;;5048861;28;20182;-44
2023/05/22 08:02:46;;;;;;;11.90;7.37;;;24.10;61.20;;;;;;5065607;28;20561;-45
2023/05/22 08:05:16;;;;;;;11.27;7.53;;;24.10;60.90;;;;;;5064468;28;20201;-43
2023/05/22 08:07:48;;;;;;;8.97;6.77;;;24.10;60.80;;;;;;5064250;28;20635;-43
2023/05/22 08:10:17;;;;;;;10.60;7.53;;;24.20;60.90;;;;;;5066175;28;20255;-44
2023/05/22 08:13:06;;;;;;;13.17;7.00;;;24.20;60.90;;;;;;5052369;28;20237;-45
2023/05/22 08:15:38;;;;;;;14.27;6.73;;;24.20;61.00;;;;;;5068885;28;20205;-45
2023/05/22 08:18:10;;;;;;;16.90;6.83;;;24.30;60.80;;;;;;5060053;28;20218;-45
2023/05/22 08:20:41;;;;;;;10.63;7.50;;;24.40;61.30;;;;;;5054455;28;20321;-45
2023/05/22 08:23:11;;;;;;;11.13;6.80;;;24.40;61.00;;;;;;5061737;28;20193;-45
2023/05/22 08:25:45;;;;;;;10.07;6.77;;;24.40;60.50;;;;;;5051395;28;20194;-45
2023/05/22 08:28:20;;;;;;;10.50;7.03;;;24.50;60.60;;;;;;5059854;28;20359;-45
2023/05/22 08:30:51;;;;;;;9.67;6.67;;;24.50;60.30;;;;;;5047645;28;20206;-45
2023/05/22 08:33:23;;;;;;;11.83;6.90;;;24.50;60.00;;;;;;5051950;28;20608;-44
2023/05/22 08:35:53;;;;;;;15.93;7.30;;;24.60;60.60;;;;;;5067198;28;20194;-45
2023/05/22 08:38:26;;;;;;;9.53;6.67;;;24.70;60.00;;;;;;5065351;28;20197;-45
2023/05/22 08:40:58;;;;;;;12.10;7.83;;;24.70;59.60;;;;;;5068287;28;20202;-44
2023/05/22 08:43:31;;;;;;;15.77;7.03;;;24.70;59.40;;;;;;5065975;28;20632;-44
2023/05/22 08:46:07;;;;;;;9.97;7.47;;;24.80;60.10;;;;;;5049550;28;20194;-44
2023/05/22 08:48:40;;;;;;;10.10;6.97;;;24.90;59.70;;;;;;5067707;28;20685;-44
2023/05/22 08:51:12;;;;;;;11.87;7.17;;;25.00;59.60;;;;;;5067486;28;20205;-44
2023/05/22 08:53:43;;;;;;;8.23;6.37;;;25.00;59.80;;;;;;5067845;28;20197;-44
2023/05/22 08:56:13;;;;;;;10.50;6.90;;;25.10;59.30;;;;;;5039639;28;20698;-44
2023/05/22 08:58:45;;;;;;;12.40;7.47;;;25.10;58.90;;;;;;5062276;28;20221;-44
2023/05/22 09:01:31;;;;;;;12.80;7.43;;;25.20;58.70;;;;;;5051185;28;20197;-44
2023/05/22 09:04:02;;;;;;;10.67;6.83;;;25.20;59.00;;;;;;5048056;28;20626;-44
2023/05/22 09:06:30;;;;;;;11.17;7.43;;;25.20;58.70;;;;;;5057308;28;20498;-44
2023/05/22 09:09:03;;;;;;;13.07;7.03;;;25.30;58.20;;;;;;5052190;28;20190;-45
2023/05/22 09:11:36;;;;;;;11.90;7.63;;;25.30;58.80;;;;;;5056015;28;20200;-44
2023/05/22 09:14:11;;;;;;;9.40;7.33;;;25.30;58.20;;;;;;5056501;28;20201;-44
2023/05/22 09:17:10;;;;;;;10.90;7.73;;;25.30;57.90;;;;;;5068740;28;20549;-45
2023/05/22 09:19:42;;;;;;;12.03;7.00;;;25.40;58.10;;;;;;5072552;28;20198;-45
2023/05/22 09:22:11;;;;;;;11.07;6.97;;;25.40;58.80;;;;;;5039166;28;20182;-44
2023/05/22 09:24:46;;;;;;;14.93;8.10;;;25.40;58.60;;;;;;5051545;28;22001;-44
2023/05/22 09:27:21;;;;;;;11.30;7.23;;;25.40;58.20;;;;;;5051670;28;20604;-44
2023/05/22 09:29:56;;;;;;;13.50;8.17;;;25.50;58.70;;;;;;5047379;28;20205;-44
2023/05/22 09:32:30;;;;;;;10.53;6.90;;;25.50;58.20;;;;;;5059960;28;20232;-44
2023/05/22 09:35:08;;;;;;;10.03;7.17;;;25.50;58.20;;;;;;5065068;28;20201;-45
2023/05/22 09:37:38;;;;;;;9.97;7.13;;;25.60;59.00;;;;;;5068005;28;20204;-44
2023/05/22 09:40:14;;;;;;;11.07;8.00;;;25.60;58.40;;;;;;5065220;28;20571;-45
2023/05/22 09:42:58;;;;;;;14.57;7.60;;;25.60;58.30;;;;;;5063442;28;20722;-44
2023/05/22 09:45:33;;;;;;;11.77;8.43;;;25.70;58.60;;;;;;5073503;28;20602;-44
2023/05/22 09:48:08;;;;;;;10.63;7.07;;;25.70;58.20;;;;;;5049163;28;20263;-45
2023/05/22 09:50:42;;;;;;;15.80;7.63;;;25.70;58.40;;;;;;5050450;28;20223;-44
2023/05/22 09:53:17;;;;;;;15.43;7.83;;;25.70;58.40;;;;;;5035758;28;20193;-44
2023/05/22 09:56:00;;;;;;;11.53;8.13;;;25.80;58.40;;;;;;5050132;28;20290;-46
2023/05/22 09:58:42;;;;;;;13.80;7.50;;;25.80;58.40;;;;;;5050469;28;20217;-45
2023/05/22 10:01:20;;;;;;;15.70;7.50;;;25.80;58.10;;;;;;5059041;28;20209;-44
2023/05/22 10:03:59;;;;;;;13.50;8.23;;;25.80;58.50;;;;;;5021515;28;20181;-44
2023/05/22 10:06:35;;;;;;;20.00;11.47;;;25.80;58.70;;;;;;5056746;28;20224;-44
2023/05/22 10:09:16;;;;;;;27.67;10.53;;;25.90;59.90;;;;;;5070733;28;20212;-44
2023/05/22 10:11:52;;;;;;;14.93;10.10;;;25.80;59.10;;;;;;5071573;28;20193;-44
2023/05/22 10:14:23;;;;;;;19.27;11.47;;;25.80;58.60;;;;;;5068738;28;20239;-44
2023/05/22 10:17:01;;;;;;;17.07;10.40;;;25.70;58.80;;;;;;5065062;28;20248;-45
2023/05/22 10:19:35;;;;;;;16.97;11.30;;;25.70;58.90;;;;;;5044637;28;20208;-44
2023/05/22 10:22:19;;;;;;;14.20;10.83;;;25.70;58.90;;;;;;5068981;28;20239;-45
2023/05/22 10:24:57;;;;;;;19.07;11.50;;;25.70;59.10;;;;;;5068167;28;20197;-45
2023/05/22 10:27:27;;;;;;;16.83;11.27;;;25.60;59.20;;;;;;5073046;28;20217;-44
2023/05/22 10:30:31;;;;;;;20.30;12.20;;;25.60;58.80;;;;;;5071102;28;20227;-45
2023/05/22 10:33:31;;;;;;;13.87;9.43;;;25.60;58.80;;;;;;5055940;28;20197;-45
2023/05/22 10:36:07;;;;;;;12.43;9.33;;;25.60;59.80;;;;;;5071425;28;20726;-44
2023/05/22 10:39:12;;;;;;;13.93;9.50;;;25.60;59.70;;;;;;5058371;28;20673;-44
2023/05/22 10:41:43;;;;;;;12.10;8.80;;;25.60;59.70;;;;;;5071768;28;20205;-45
2023/05/22 10:44:12;;;;;;;11.87;9.20;;;25.70;59.70;;;;;;5053360;28;20744;-45
2023/05/22 10:46:52;;;;;;;11.23;9.37;;;25.70;59.50;;;;;;5056211;28;20740;-45
2023/05/22 10:49:23;;;;;;;17.40;9.40;;;25.80;59.40;;;;;;5071447;28;20193;-45
2023/05/22 10:51:55;;;;;;;14.77;9.93;;;25.80;60.00;;;;;;5069731;28;20566;-45
2023/05/22 10:54:44;;;;;;;17.13;9.37;;;25.80;59.80;;;;;;5048410;28;21738;-45
2023/05/22 10:57:16;;;;;;;11.53;9.50;;;25.90;59.90;;;;;;5064026;28;20221;-45
2023/05/22 10:59:49;;;;;;;12.33;9.30;;;25.90;59.60;;;;;;5031234;28;20201;-45
2023/05/22 11:02:29;;;;;;;12.80;8.87;;;25.90;59.50;;;;;;5062077;28;20589;-45
2023/05/22 11:05:26;;;;;;;10.93;9.00;;;26.00;59.50;;;;;;5050348;28;20206;-45
2023/05/22 11:08:08;;;;;;;13.43;9.10;;;26.00;59.30;;;;;;5068127;28;20260;-46
2023/05/22 11:10:55;;;;;;;14.10;10.10;;;26.00;59.00;;;;;;5071287;28;20206;-46
2023/05/22 11:13:28;;;;;;;14.63;10.10;;;26.00;59.50;;;;;;5053630;28;20599;-46
2023/05/22 11:16:04;;;;;;;11.87;9.53;;;26.10;59.20;;;;;;5051351;28;20201;-45
2023/05/22 11:18:34;;;;;;;17.90;9.50;;;26.10;59.00;;;;;;5049639;28;20252;-45
2023/05/22 11:21:08;;;;;;;10.57;8.73;;;26.10;59.30;;;;;;5063051;28;20776;-45
2023/05/22 11:23:40;;;;;;;12.03;9.47;;;26.20;58.90;;;;;;5052913;28;20197;-45
2023/05/22 11:26:23;;;;;;;15.67;9.17;;;26.20;59.00;;;;;;5051602;28;20186;-45
2023/05/22 11:28:58;;;;;;;12.20;8.83;;;26.30;59.20;;;;;;5053938;28;20533;-45
2023/05/22 11:31:29;;;;;;;14.23;10.10;;;26.30;59.40;;;;;;5067422;28;20225;-45
2023/05/22 11:34:01;;;;;;;11.07;8.87;;;26.40;58.90;;;;;;5048815;28;20220;-46
2023/05/22 11:36:32;;;;;;;12.43;9.60;;;26.40;59.20;;;;;;5069413;28;20238;-45
2023/05/22 11:39:02;;;;;;;11.37;8.90;;;26.40;59.00;;;;;;5070212;28;20665;-45
2023/05/22 11:41:38;;;;;;;11.83;9.13;;;26.50;59.10;;;;;;5070094;28;20193;-46
2023/05/22 11:44:09;;;;;;;14.33;10.20;;;26.50;59.40;;;;;;5060768;28;20719;-45
2023/05/22 11:46:41;;;;;;;12.10;9.93;;;26.60;59.50;;;;;;5068656;28;20197;-45
2023/05/22 11:49:12;;;;;;;16.40;10.10;;;26.60;59.80;;;;;;5066730;28;20194;-45
2023/05/22 11:51:40;;;;;;;11.07;9.83;;;26.70;59.80;;;;;;5052264;28;20705;-45
2023/05/22 11:54:11;;;;;;;12.93;9.53;;;26.70;59.60;;;;;;5064485;28;20192;-44
2023/05/22 11:56:44;;;;;;;10.43;9.33;;;26.70;59.80;;;;;;5069711;28;20214;-45
2023/05/22 11:59:15;;;;;;;12.83;10.70;;;26.80;60.20;;;;;;5052518;28;20204;-45
2023/05/22 12:01:48;;;;;;;13.20;10.53;;;26.80;59.80;;;;;;5065150;28;20202;-46
2023/05/22 12:04:22;;;;;;;18.97;10.87;;;26.80;59.20;;;;;;5048697;28;20525;-46
2023/05/22 12:06:51;;;;;;;11.50;9.70;;;26.90;59.50;;;;;;5060867;28;20275;-45
2023/05/22 12:09:21;;;;;;;11.43;10.10;;;26.90;59.70;;;;;;5069107;28;20193;-45
2023/05/22 12:11:50;;;;;;;14.57;10.93;;;26.90;60.00;;;;;;5051390;28;20533;-45
2023/05/22 12:14:30;;;;;;;14.03;10.90;;;27.00;59.60;;;;;;5066728;28;20194;-45
2023/05/22 12:17:03;;;;;;;14.47;10.93;;;27.00;59.40;;;;;;5046304;28;20193;-46
2023/05/22 12:19:32;;;;;;;14.20;10.53;;;27.00;59.50;;;;;;5048558;28;20256;-46
2023/05/22 12:22:03;;;;;;;13.40;10.33;;;27.00;59.50;;;;;;5060618;28;20245;-46
2023/05/22 12:24:51;;;;;;;11.77;9.20;;;27.00;59.60;;;;;;5050849;28;20802;-46
2023/05/22 12:27:22;;;;;;;11.93;10.70;;;27.10;59.30;;;;;;5067899;28;20197;-45
2023/05/22 12:29:57;;;;;;;12.87;9.87;;;27.10;59.50;;;;;;5068664;28;20198;-45
2023/05/22 12:32:27;;;;;;;12.47;10.20;;;27.10;59.20;;;;;;5038149;28;20628;-45
2023/05/22 12:34:57;;;;;;;11.57;9.90;;;27.10;59.30;;;;;;5050852;28;20746;-44
2023/05/22 12:37:32;;;;;;;13.80;11.37;;;27.20;59.50;;;;;;5043161;28;20214;-45
2023/05/22 12:40:18;;;;;;;12.40;9.77;;;27.20;59.30;;;;;;5057197;28;20668;-44
2023/05/22 12:42:51;;;;;;;14.50;10.17;;;27.20;59.70;;;;;;5053227;28;20201;-45
2023/05/22 12:45:22;;;;;;;11.70;9.57;;;27.30;59.20;;;;;;5033008;28;20198;-45
2023/05/22 12:47:53;;;;;;;14.40;10.47;;;27.30;59.40;;;;;;5055429;28;20255;-45
2023/05/22 12:50:22;;;;;;;14.53;11.00;;;27.30;59.10;;;;;;5048761;28;20199;-45
2023/05/22 12:52:56;;;;;;;13.93;10.77;;;27.30;59.20;;;;;;5053167;28;20205;-45
2023/05/22 12:55:23;;;;;;;13.77;10.77;;;27.40;59.30;;;;;;5038688;28;20262;-46
2023/05/22 12:57:51;;;;;;;10.90;9.90;;;27.40;59.30;;;;;;5051930;28;20214;-46
2023/05/22 13:00:26;;;;;;;11.47;10.27;;;27.40;59.20;;;;;;5050237;28;20812;-46
2023/05/22 13:02:58;;;;;;;12.20;9.90;;;27.40;58.90;;;;;;5053454;28;20186;-46
2023/05/22 13:05:29;;;;;;;11.20;9.93;;;27.50;59.00;;;;;;5020004;28;20236;-44
2023/05/22 13:07:59;;;;;;;11.37;10.17;;;27.50;59.10;;;;;;5044599;28;20249;-44
2023/05/22 13:10:31;;;;;;;11.40;9.80;;;27.50;59.10;;;;;;5048282;28;20206;-44
2023/05/22 13:12:59;;;;;;;11.40;9.00;;;27.50;59.20;;;;;;5035722;28;20194;-44
2023/05/22 13:15:31;;;;;;;11.00;9.70;;;27.50;59.30;;;;;;5029012;28;20194;-44